sensor_id;sensor_type;location;lat;lon;timestamp;pressure;altitude;pressure_sealevel;temperature;humidity
24390;BME280;12510;56.468;-3.004;2023-02-28T00:00:37;102796.88;;;13.14;68.33
24390;BME280;12510;56.468;-3.004;2023-02-28T00:03:03;102791.56;;;13.68;66.21
24390;BME280;12510;56.468;-3.004;2023-02-28T00:05:30;102793.56;;;13.65;65.74
24390;BME280;12510;56.468;-3.004;2023-02-28T00:07:56;102788.63;;;13.73;65.83
24390;BME280;12510;56.468;-3.004;2023-02-28T00:10:28;102798.78;;;13.79;65.52
24390;BME280;12510;56.468;-3.004;2023-02-28T00:12:58;102801.88;;;13.73;65.22
24390;BME280;12510;56.468;-3.004;2023-02-28T00:15:25;102802.81;;;13.85;65.24
24390;BME280;12510;56.468;-3.004;2023-02-28T00:17:52;102804.59;;;13.84;64.93
24390;BME280;12510;56.468;-3.004;2023-02-28T00:20:19;102797.84;;;13.80;65.03
24390;BME280;12510;56.468;-3.004;2023-02-28T00:22:47;102804.22;;;13.90;65.47
24390;BME280;12510;56.468;-3.004;2023-02-28T00:25:19;102810.75;;;13.85;65.36
24390;BME280;12510;56.468;-3.004;2023-02-28T00:27:47;102803.78;;;13.84;65.22
24390;BME280;12510;56.468;-3.004;2023-02-28T00:30:19;102805.78;;;13.80;65.01
24390;BME280;12510;56.468;-3.004;2023-02-28T00:32:46;102801.97;;;13.84;65.56
24390;BME280;12510;56.468;-3.004;2023-02-28T00:35:12;102781.59;;;16.84;56.42
24390;BME280;12510;56.468;-3.004;2023-02-28T00:37:41;102787.69;;;16.52;55.55
24390;BME280;12510;56.468;-3.004;2023-02-28T00:40:10;102794.31;;;16.46;55.41
24390;BME280;12510;56.468;-3.004;2023-02-28T00:42:38;102779.75;;;16.84;54.38
24390;BME280;12510;56.468;-3.004;2023-02-28T00:45:05;102789.25;;;17.09;53.82
24390;BME280;12510;56.468;-3.004;2023-02-28T00:47:32;102799.91;;;15.02;55.83
24390;BME280;12510;56.468;-3.004;2023-02-28T00:49:59;102814.03;;;13.88;62.91
24390;BME280;12510;56.468;-3.004;2023-02-28T00:52:25;102814.72;;;16.00;60.16
24390;BME280;12510;56.468;-3.004;2023-02-28T00:54:54;102795.88;;;16.49;55.47
24390;BME280;12510;56.468;-3.004;2023-02-28T00:57:21;102795.84;;;16.71;54.43
24390;BME280;12510;56.468;-3.004;2023-02-28T00:59:48;102794.91;;;16.72;54.30
24390;BME280;12510;56.468;-3.004;2023-02-28T01:02:15;102803.38;;;15.51;54.30
24390;BME280;12510;56.468;-3.004;2023-02-28T01:04:41;102821.78;;;13.79;63.07
24390;BME280;12510;56.468;-3.004;2023-02-28T01:07:08;102820.28;;;13.74;64.63
24390;BME280;12510;56.468;-3.004;2023-02-28T01:09:35;102805.81;;;16.24;57.42
24390;BME280;12510;56.468;-3.004;2023-02-28T01:12:01;102804.13;;;16.46;55.82
24390;BME280;12510;56.468;-3.004;2023-02-28T01:14:28;102802.91;;;16.50;54.81
24390;BME280;12510;56.468;-3.004;2023-02-28T01:16:54;102811.56;;;14.75;57.60
24390;BME280;12510;56.468;-3.004;2023-02-28T01:19:21;102822.13;;;14.00;62.85
24390;BME280;12510;56.468;-3.004;2023-02-28T01:21:47;102818.38;;;13.77;65.16
24390;BME280;12510;56.468;-3.004;2023-02-28T01:24:13;102813.63;;;13.82;65.39
24390;BME280;12510;56.468;-3.004;2023-02-28T01:26:40;102813.94;;;14.16;63.04
24390;BME280;12510;56.468;-3.004;2023-02-28T01:29:07;102813.94;;;13.90;64.97
24390;BME280;12510;56.468;-3.004;2023-02-28T01:31:34;102811.81;;;13.95;65.14
24390;BME280;12510;56.468;-3.004;2023-02-28T01:34:01;102814.34;;;14.48;66.40
24390;BME280;12510;56.468;-3.004;2023-02-28T01:36:28;102813.84;;;14.04;64.52
24390;BME280;12510;56.468;-3.004;2023-02-28T01:38:55;102808.84;;;13.87;65.82
24390;BME280;12510;56.468;-3.004;2023-02-28T01:41:25;102810.13;;;13.81;65.96
24390;BME280;12510;56.468;-3.004;2023-02-28T01:43:58;102810.63;;;13.73;65.50
24390;BME280;12510;56.468;-3.004;2023-02-28T01:46:25;102817.09;;;13.69;67.25
24390;BME280;12510;56.468;-3.004;2023-02-28T01:51:39;102817.75;;;13.86;66.50
24390;BME280;12510;56.468;-3.004;2023-02-28T01:54:15;102814.78;;;13.78;66.41
24390;BME280;12510;56.468;-3.004;2023-02-28T01:56:59;102806.75;;;13.92;65.56
24390;BME280;12510;56.468;-3.004;2023-02-28T01:59:34;102806.72;;;13.79;66.67
24390;BME280;12510;56.468;-3.004;2023-02-28T02:02:02;102802.72;;;13.86;65.29
24390;BME280;12510;56.468;-3.004;2023-02-28T02:04:37;102807.66;;;13.78;66.72
24390;BME280;12510;56.468;-3.004;2023-02-28T02:07:21;102808.09;;;13.85;66.66
24390;BME280;12510;56.468;-3.004;2023-02-28T02:09:48;102807.59;;;13.80;66.42
24390;BME280;12510;56.468;-3.004;2023-02-28T02:12:37;102813.47;;;14.73;65.27
24390;BME280;12510;56.468;-3.004;2023-02-28T02:15:16;102820.91;;;13.65;66.60
24390;BME280;12510;56.468;-3.004;2023-02-28T02:17:49;102824.50;;;13.64;67.21
24390;BME280;12510;56.468;-3.004;2023-02-28T02:23:25;102821.34;;;13.72;66.63
24390;BME280;12510;56.468;-3.004;2023-02-28T02:39:52;102827.97;;;13.52;67.98
24390;BME280;12510;56.468;-3.004;2023-02-28T02:42:31;102815.84;;;13.88;66.15
24390;BME280;12510;56.468;-3.004;2023-02-28T02:45:03;102805.88;;;13.79;65.75
24390;BME280;12510;56.468;-3.004;2023-02-28T02:47:34;102815.56;;;13.52;67.70
24390;BME280;12510;56.468;-3.004;2023-02-28T02:50:06;102814.75;;;13.65;67.29
24390;BME280;12510;56.468;-3.004;2023-02-28T02:52:42;102812.28;;;15.86;64.19
24390;BME280;12510;56.468;-3.004;2023-02-28T02:55:11;102811.63;;;14.11;62.54
24390;BME280;12510;56.468;-3.004;2023-02-28T02:57:49;102806.88;;;15.87;59.70
24390;BME280;12510;56.468;-3.004;2023-02-28T03:00:19;102802.56;;;16.32;57.36
24390;BME280;12510;56.468;-3.004;2023-02-28T03:02:48;102791.88;;;16.77;55.57
24390;BME280;12510;56.468;-3.004;2023-02-28T03:05:29;102793.94;;;16.73;54.85
24390;BME280;12510;56.468;-3.004;2023-02-28T03:07:56;102786.06;;;16.72;54.64
24390;BME280;12510;56.468;-3.004;2023-02-28T03:10:38;102778.91;;;16.84;53.77
24390;BME280;12510;56.468;-3.004;2023-02-28T03:21:27;102792.47;;;16.92;53.39
24390;BME280;12510;56.468;-3.004;2023-02-28T03:26:31;102793.59;;;16.44;54.46
24390;BME280;12510;56.468;-3.004;2023-02-28T03:29:26;102794.78;;;16.63;54.12
24390;BME280;12510;56.468;-3.004;2023-02-28T03:31:59;102796.00;;;16.58;54.04
24390;BME280;12510;56.468;-3.004;2023-02-28T03:34:36;102786.94;;;16.50;54.22
24390;BME280;12510;56.468;-3.004;2023-02-28T03:37:17;102796.50;;;16.52;54.66
24390;BME280;12510;56.468;-3.004;2023-02-28T03:39:54;102794.66;;;16.53;54.43
24390;BME280;12510;56.468;-3.004;2023-02-28T03:42:29;102797.09;;;16.45;54.27
24390;BME280;12510;56.468;-3.004;2023-02-28T03:45:04;102790.53;;;16.83;53.66
24390;BME280;12510;56.468;-3.004;2023-02-28T03:47:39;102799.03;;;16.54;54.15
24390;BME280;12510;56.468;-3.004;2023-02-28T03:52:43;102801.34;;;16.24;54.51
24390;BME280;12510;56.468;-3.004;2023-02-28T03:55:13;102798.09;;;16.44;54.70
24390;BME280;12510;56.468;-3.004;2023-02-28T03:57:53;102800.97;;;16.52;54.21
24390;BME280;12510;56.468;-3.004;2023-02-28T04:00:32;102792.78;;;16.44;54.55
24390;BME280;12510;56.468;-3.004;2023-02-28T04:03:01;102793.47;;;16.46;54.24
24390;BME280;12510;56.468;-3.004;2023-02-28T04:05:27;102788.06;;;16.36;54.43
24390;BME280;12510;56.468;-3.004;2023-02-28T04:07:54;102791.06;;;16.65;54.20
24390;BME280;12510;56.468;-3.004;2023-02-28T04:10:20;102798.22;;;16.31;54.52
24390;BME280;12510;56.468;-3.004;2023-02-28T04:12:47;102791.44;;;16.38;54.70
24390;BME280;12510;56.468;-3.004;2023-02-28T04:15:13;102790.13;;;16.44;54.13
24390;BME280;12510;56.468;-3.004;2023-02-28T04:17:40;102797.34;;;16.41;54.07
24390;BME280;12510;56.468;-3.004;2023-02-28T04:20:07;102793.00;;;16.29;54.53
24390;BME280;12510;56.468;-3.004;2023-02-28T04:22:36;102791.19;;;16.41;54.24
24390;BME280;12510;56.468;-3.004;2023-02-28T04:25:04;102806.41;;;16.05;55.22
24390;BME280;12510;56.468;-3.004;2023-02-28T04:27:31;102802.94;;;16.38;54.32
24390;BME280;12510;56.468;-3.004;2023-02-28T04:29:58;102795.63;;;16.63;53.97
24390;BME280;12510;56.468;-3.004;2023-02-28T04:32:24;102800.97;;;16.18;55.46
24390;BME280;12510;56.468;-3.004;2023-02-28T04:34:51;102800.97;;;16.40;54.50
24390;BME280;12510;56.468;-3.004;2023-02-28T04:37:17;102797.94;;;16.90;52.56
24390;BME280;12510;56.468;-3.004;2023-02-28T04:39:43;102802.91;;;16.27;54.63
24390;BME280;12510;56.468;-3.004;2023-02-28T04:42:11;102803.75;;;16.39;54.85
24390;BME280;12510;56.468;-3.004;2023-02-28T04:44:38;102804.84;;;16.59;54.18
24390;BME280;12510;56.468;-3.004;2023-02-28T04:47:04;102803.63;;;16.40;54.56
24390;BME280;12510;56.468;-3.004;2023-02-28T04:49:31;102806.53;;;16.26;55.18
24390;BME280;12510;56.468;-3.004;2023-02-28T04:51:57;102806.28;;;16.40;55.36
24390;BME280;12510;56.468;-3.004;2023-02-28T04:54:24;102806.19;;;16.31;55.23
24390;BME280;12510;56.468;-3.004;2023-02-28T04:56:50;102800.31;;;16.82;53.90
24390;BME280;12510;56.468;-3.004;2023-02-28T04:59:17;102810.28;;;16.01;55.66
24390;BME280;12510;56.468;-3.004;2023-02-28T05:01:48;102802.69;;;16.30;55.20
24390;BME280;12510;56.468;-3.004;2023-02-28T05:04:15;102803.41;;;16.21;54.99
24390;BME280;12510;56.468;-3.004;2023-02-28T05:06:43;102809.41;;;16.00;55.25
24390;BME280;12510;56.468;-3.004;2023-02-28T05:09:10;102812.19;;;15.99;55.21
24390;BME280;12510;56.468;-3.004;2023-02-28T05:11:40;102808.94;;;16.18;54.51
24390;BME280;12510;56.468;-3.004;2023-02-28T05:14:11;102816.06;;;15.83;55.21
24390;BME280;12510;56.468;-3.004;2023-02-28T05:16:38;102813.81;;;15.77;55.07
24390;BME280;12510;56.468;-3.004;2023-02-28T05:19:05;102809.16;;;15.81;54.71
24390;BME280;12510;56.468;-3.004;2023-02-28T05:21:37;102813.59;;;15.80;54.84
24390;BME280;12510;56.468;-3.004;2023-02-28T05:24:07;102819.38;;;15.74;55.41
24390;BME280;12510;56.468;-3.004;2023-02-28T05:26:36;102828.75;;;15.67;55.62
24390;BME280;12510;56.468;-3.004;2023-02-28T05:29:03;102826.25;;;15.76;55.99
24390;BME280;12510;56.468;-3.004;2023-02-28T05:31:29;102834.50;;;15.49;57.18
24390;BME280;12510;56.468;-3.004;2023-02-28T05:33:56;102832.72;;;15.85;56.36
24390;BME280;12510;56.468;-3.004;2023-02-28T05:36:23;102831.63;;;15.88;56.07
24390;BME280;12510;56.468;-3.004;2023-02-28T05:38:50;102834.16;;;15.54;56.97
24390;BME280;12510;56.468;-3.004;2023-02-28T05:41:18;102832.19;;;15.45;56.83
24390;BME280;12510;56.468;-3.004;2023-02-28T05:43:48;102841.13;;;15.44;56.57
24390;BME280;12510;56.468;-3.004;2023-02-28T05:46:15;102839.56;;;15.52;57.05
24390;BME280;12510;56.468;-3.004;2023-02-28T05:48:42;102825.66;;;15.73;56.21
24390;BME280;12510;56.468;-3.004;2023-02-28T05:51:09;102829.00;;;15.64;56.53
24390;BME280;12510;56.468;-3.004;2023-02-28T05:53:36;102833.91;;;15.57;56.05
24390;BME280;12510;56.468;-3.004;2023-02-28T05:56:03;102833.94;;;15.33;56.84
24390;BME280;12510;56.468;-3.004;2023-02-28T05:58:30;102829.75;;;15.77;55.94
24390;BME280;12510;56.468;-3.004;2023-02-28T06:00:58;102833.72;;;15.36;56.68
24390;BME280;12510;56.468;-3.004;2023-02-28T06:03:24;102837.94;;;15.38;56.63
24390;BME280;12510;56.468;-3.004;2023-02-28T06:05:51;102833.00;;;15.34;57.60
24390;BME280;12510;56.468;-3.004;2023-02-28T06:08:17;102829.53;;;15.45;57.22
24390;BME280;12510;56.468;-3.004;2023-02-28T06:10:44;102833.84;;;15.34;57.99
24390;BME280;12510;56.468;-3.004;2023-02-28T06:13:11;102834.72;;;15.46;57.23
24390;BME280;12510;56.468;-3.004;2023-02-28T06:15:39;102832.47;;;15.53;57.08
24390;BME280;12510;56.468;-3.004;2023-02-28T06:18:05;102829.31;;;15.59;56.93
24390;BME280;12510;56.468;-3.004;2023-02-28T06:20:32;102825.59;;;15.62;56.88
24390;BME280;12510;56.468;-3.004;2023-02-28T06:22:58;102832.06;;;15.46;57.79
24390;BME280;12510;56.468;-3.004;2023-02-28T06:25:26;102844.44;;;15.70;58.04
24390;BME280;12510;56.468;-3.004;2023-02-28T06:27:54;102837.69;;;16.01;56.95
24390;BME280;12510;56.468;-3.004;2023-02-28T06:30:21;102842.31;;;15.39;58.67
24390;BME280;12510;56.468;-3.004;2023-02-28T06:32:51;102848.97;;;15.45;58.88
24390;BME280;12510;56.468;-3.004;2023-02-28T06:35:18;102850.78;;;15.45;59.18
24390;BME280;12510;56.468;-3.004;2023-02-28T06:37:44;102859.94;;;15.76;58.69
24390;BME280;12510;56.468;-3.004;2023-02-28T06:40:11;102852.25;;;15.49;59.29
24390;BME280;12510;56.468;-3.004;2023-02-28T06:42:39;102854.91;;;14.87;60.74
24390;BME280;12510;56.468;-3.004;2023-02-28T06:45:06;102855.28;;;15.07;61.07
24390;BME280;12510;56.468;-3.004;2023-02-28T06:47:36;102850.56;;;15.23;60.09
24390;BME280;12510;56.468;-3.004;2023-02-28T06:50:04;102860.25;;;15.60;58.52
24390;BME280;12510;56.468;-3.004;2023-02-28T06:52:30;102856.50;;;15.27;58.78
24390;BME280;12510;56.468;-3.004;2023-02-28T06:54:57;102860.09;;;15.50;58.66
24390;BME280;12510;56.468;-3.004;2023-02-28T06:57:31;102866.91;;;15.41;59.19
24390;BME280;12510;56.468;-3.004;2023-02-28T06:59:59;102860.63;;;15.31;59.40
24390;BME280;12510;56.468;-3.004;2023-02-28T07:02:26;102868.41;;;14.58;61.48
24390;BME280;12510;56.468;-3.004;2023-02-28T07:04:53;102861.78;;;15.51;59.17
24390;BME280;12510;56.468;-3.004;2023-02-28T07:07:19;102853.72;;;15.53;58.37
24390;BME280;12510;56.468;-3.004;2023-02-28T07:09:46;102862.06;;;15.95;56.91
24390;BME280;12510;56.468;-3.004;2023-02-28T07:12:12;102865.38;;;15.74;56.57
24390;BME280;12510;56.468;-3.004;2023-02-28T07:14:39;102861.97;;;15.37;58.06
24390;BME280;12510;56.468;-3.004;2023-02-28T07:17:09;102856.66;;;15.97;57.35
24390;BME280;12510;56.468;-3.004;2023-02-28T07:19:38;102867.19;;;15.25;58.02
24390;BME280;12510;56.468;-3.004;2023-02-28T07:22:06;102869.59;;;14.80;59.25
24390;BME280;12510;56.468;-3.004;2023-02-28T07:24:32;102866.88;;;15.06;60.09
24390;BME280;12510;56.468;-3.004;2023-02-28T07:26:59;102866.09;;;15.17;59.68
24390;BME280;12510;56.468;-3.004;2023-02-28T07:29:26;102871.63;;;15.73;58.15
24390;BME280;12510;56.468;-3.004;2023-02-28T07:31:52;102874.50;;;15.83;56.95
24390;BME280;12510;56.468;-3.004;2023-02-28T07:34:20;102876.81;;;15.15;57.21
24390;BME280;12510;56.468;-3.004;2023-02-28T07:36:46;102884.44;;;14.70;60.60
24390;BME280;12510;56.468;-3.004;2023-02-28T07:39:12;102880.81;;;15.21;58.93
24390;BME280;12510;56.468;-3.004;2023-02-28T07:41:39;102880.97;;;15.06;59.50
24390;BME280;12510;56.468;-3.004;2023-02-28T07:44:09;102882.06;;;15.28;58.81
24390;BME280;12510;56.468;-3.004;2023-02-28T07:46:36;102872.69;;;15.11;57.94
24390;BME280;12510;56.468;-3.004;2023-02-28T07:49:03;102880.41;;;15.14;58.37
24390;BME280;12510;56.468;-3.004;2023-02-28T07:51:30;102881.56;;;14.86;57.71
24390;BME280;12510;56.468;-3.004;2023-02-28T07:53:57;102887.22;;;15.05;59.91
24390;BME280;12510;56.468;-3.004;2023-02-28T07:56:23;102888.91;;;15.19;59.44
24390;BME280;12510;56.468;-3.004;2023-02-28T07:58:50;102900.03;;;13.43;65.33
24390;BME280;12510;56.468;-3.004;2023-02-28T08:01:16;102900.53;;;13.20;67.89
24390;BME280;12510;56.468;-3.004;2023-02-28T08:03:43;102910.38;;;13.18;68.47
24390;BME280;12510;56.468;-3.004;2023-02-28T08:06:19;102903.34;;;13.46;67.28
24390;BME280;12510;56.468;-3.004;2023-02-28T08:08:46;102913.03;;;12.89;68.20
24390;BME280;12510;56.468;-3.004;2023-02-28T08:11:12;102911.22;;;13.04;69.66
24390;BME280;12510;56.468;-3.004;2023-02-28T08:13:39;102897.78;;;15.31;62.93
24390;BME280;12510;56.468;-3.004;2023-02-28T08:16:06;102885.94;;;16.31;58.34
24390;BME280;12510;56.468;-3.004;2023-02-28T08:18:32;102888.94;;;16.15;57.83
24390;BME280;12510;56.468;-3.004;2023-02-28T08:20:59;102903.81;;;13.38;65.60
24390;BME280;12510;56.468;-3.004;2023-02-28T08:23:26;102918.16;;;12.78;70.71
24390;BME280;12510;56.468;-3.004;2023-02-28T08:25:53;102912.38;;;13.00;70.22
24390;BME280;12510;56.468;-3.004;2023-02-28T08:28:21;102908.31;;;14.44;66.34
24390;BME280;12510;56.468;-3.004;2023-02-28T08:30:47;102893.84;;;14.10;61.78
24390;BME280;12510;56.468;-3.004;2023-02-28T08:33:14;102901.16;;;15.33;62.16
24390;BME280;12510;56.468;-3.004;2023-02-28T08:35:40;102898.28;;;15.85;59.92
24390;BME280;12510;56.468;-3.004;2023-02-28T08:38:06;102898.66;;;15.43;61.49
24390;BME280;12510;56.468;-3.004;2023-02-28T08:40:33;102898.16;;;15.62;60.76
24390;BME280;12510;56.468;-3.004;2023-02-28T08:42:59;102903.81;;;15.57;58.63
24390;BME280;12510;56.468;-3.004;2023-02-28T08:45:26;102909.31;;;15.91;59.30
24390;BME280;12510;56.468;-3.004;2023-02-28T08:47:54;102903.75;;;15.70;60.10
24390;BME280;12510;56.468;-3.004;2023-02-28T08:50:21;102882.28;;;18.61;54.89
24390;BME280;12510;56.468;-3.004;2023-02-28T08:52:48;102882.47;;;18.38;54.70
24390;BME280;12510;56.468;-3.004;2023-02-28T08:55:15;102873.84;;;17.50;51.28
24390;BME280;12510;56.468;-3.004;2023-02-28T08:57:41;102877.28;;;17.94;51.00
24390;BME280;12510;56.468;-3.004;2023-02-28T09:00:08;102871.13;;;17.61;51.00
24390;BME280;12510;56.468;-3.004;2023-02-28T09:02:36;102851.91;;;18.62;47.85
24390;BME280;12510;56.468;-3.004;2023-02-28T09:05:03;102862.53;;;18.42;48.26
24390;BME280;12510;56.468;-3.004;2023-02-28T09:07:29;102875.13;;;18.30;50.39
24390;BME280;12510;56.468;-3.004;2023-02-28T09:09:56;102877.22;;;18.36;50.23
24390;BME280;12510;56.468;-3.004;2023-02-28T09:12:25;102878.56;;;18.52;49.72
24390;BME280;12510;56.468;-3.004;2023-02-28T09:14:52;102859.63;;;18.55;48.36
24390;BME280;12510;56.468;-3.004;2023-02-28T09:17:19;102881.03;;;17.38;49.81
24390;BME280;12510;56.468;-3.004;2023-02-28T09:19:48;102884.28;;;16.98;50.29
24390;BME280;12510;56.468;-3.004;2023-02-28T09:22:15;102893.50;;;17.37;50.93
24390;BME280;12510;56.468;-3.004;2023-02-28T09:24:42;102900.47;;;16.72;52.89
24390;BME280;12510;56.468;-3.004;2023-02-28T09:27:08;102885.75;;;17.88;48.62
24390;BME280;12510;56.468;-3.004;2023-02-28T09:29:35;102892.09;;;17.22;49.90
24390;BME280;12510;56.468;-3.004;2023-02-28T09:32:01;102893.59;;;18.22;48.66
24390;BME280;12510;56.468;-3.004;2023-02-28T09:34:28;102895.31;;;18.02;48.97
24390;BME280;12510;56.468;-3.004;2023-02-28T09:36:56;102894.22;;;17.39;49.15
24390;BME280;12510;56.468;-3.004;2023-02-28T09:39:23;102888.09;;;18.85;47.85
24390;BME280;12510;56.468;-3.004;2023-02-28T09:41:52;102898.34;;;17.32;49.30
24390;BME280;12510;56.468;-3.004;2023-02-28T09:44:27;102896.22;;;17.80;47.69
24390;BME280;12510;56.468;-3.004;2023-02-28T09:46:59;102894.03;;;18.27;48.23
24390;BME280;12510;56.468;-3.004;2023-02-28T09:49:47;102907.56;;;17.93;48.22
24390;BME280;12510;56.468;-3.004;2023-02-28T09:52:21;102890.06;;;18.83;46.88
24390;BME280;12510;56.468;-3.004;2023-02-28T09:54:48;102903.47;;;18.31;47.38
24390;BME280;12510;56.468;-3.004;2023-02-28T10:00:24;102894.84;;;18.18;47.17
24390;BME280;12510;56.468;-3.004;2023-02-28T10:03:09;102894.25;;;17.93;47.51
24390;BME280;12510;56.468;-3.004;2023-02-28T10:08:56;102882.56;;;18.36;46.13
24390;BME280;12510;56.468;-3.004;2023-02-28T10:11:28;102883.84;;;19.23;45.75
24390;BME280;12510;56.468;-3.004;2023-02-28T10:16:45;102873.00;;;18.34;45.45
24390;BME280;12510;56.468;-3.004;2023-02-28T10:21:49;102889.22;;;19.63;46.35
24390;BME280;12510;56.468;-3.004;2023-02-28T10:24:28;102867.66;;;20.03;42.32
24390;BME280;12510;56.468;-3.004;2023-02-28T10:27:01;102886.66;;;20.85;45.30
24390;BME280;12510;56.468;-3.004;2023-02-28T10:29:31;102853.72;;;21.39;40.87
24390;BME280;12510;56.468;-3.004;2023-02-28T10:32:01;102866.69;;;20.80;41.15
24390;BME280;12510;56.468;-3.004;2023-02-28T10:34:28;102861.09;;;20.91;40.51
24390;BME280;12510;56.468;-3.004;2023-02-28T10:36:55;102863.06;;;20.33;40.54
24390;BME280;12510;56.468;-3.004;2023-02-28T10:39:35;102859.00;;;20.29;41.93
24390;BME280;12510;56.468;-3.004;2023-02-28T10:42:05;102869.53;;;19.54;42.82
24390;BME280;12510;56.468;-3.004;2023-02-28T10:44:44;102868.59;;;20.22;41.62
24390;BME280;12510;56.468;-3.004;2023-02-28T10:47:17;102871.94;;;21.17;42.42
24390;BME280;12510;56.468;-3.004;2023-02-28T10:49:49;102860.16;;;20.54;40.42
24390;BME280;12510;56.468;-3.004;2023-02-28T10:52:40;102874.03;;;19.83;41.52
24390;BME280;12510;56.468;-3.004;2023-02-28T10:55:23;102876.41;;;19.27;42.93
24390;BME280;12510;56.468;-3.004;2023-02-28T10:57:52;102876.88;;;20.94;42.71
24390;BME280;12510;56.468;-3.004;2023-02-28T11:00:21;102875.22;;;21.47;41.78
24390;BME280;12510;56.468;-3.004;2023-02-28T11:02:48;102886.84;;;21.02;43.52
24390;BME280;12510;56.468;-3.004;2023-02-28T11:05:27;102884.00;;;19.71;42.89
24390;BME280;12510;56.468;-3.004;2023-02-28T11:08:03;102886.84;;;19.69;44.42
24390;BME280;12510;56.468;-3.004;2023-02-28T11:10:32;102886.78;;;20.56;43.07
24390;BME280;12510;56.468;-3.004;2023-02-28T11:13:01;102879.09;;;20.81;41.74
24390;BME280;12510;56.468;-3.004;2023-02-28T11:15:32;102888.09;;;19.75;45.15
24390;BME280;12510;56.468;-3.004;2023-02-28T11:18:27;102898.34;;;19.50;44.93
24390;BME280;12510;56.468;-3.004;2023-02-28T11:20:58;102895.28;;;19.45;44.37
24390;BME280;12510;56.468;-3.004;2023-02-28T11:23:27;102899.91;;;19.63;44.36
24390;BME280;12510;56.468;-3.004;2023-02-28T11:25:58;102910.72;;;19.41;45.75
24390;BME280;12510;56.468;-3.004;2023-02-28T11:28:40;102904.81;;;19.67;45.06
24390;BME280;12510;56.468;-3.004;2023-02-28T11:36:19;102915.16;;;18.71;47.69
24390;BME280;12510;56.468;-3.004;2023-02-28T11:38:47;102926.28;;;18.76;48.23
24390;BME280;12510;56.468;-3.004;2023-02-28T11:46:47;102923.34;;;18.48;48.44
24390;BME280;12510;56.468;-3.004;2023-02-28T11:51:59;102930.38;;;18.49;49.97
24390;BME280;12510;56.468;-3.004;2023-02-28T12:13:51;102910.25;;;17.17;52.79
24390;BME280;12510;56.468;-3.004;2023-02-28T12:16:43;102913.69;;;16.96;54.59
24390;BME280;12510;56.468;-3.004;2023-02-28T12:19:21;102913.59;;;17.30;58.84
24390;BME280;12510;56.468;-3.004;2023-02-28T12:22:38;102908.31;;;17.19;54.58
24390;BME280;12510;56.468;-3.004;2023-02-28T12:27:37;102914.84;;;16.81;56.96
24390;BME280;12510;56.468;-3.004;2023-02-28T12:33:12;102908.34;;;16.96;58.85
24390;BME280;12510;56.468;-3.004;2023-02-28T12:35:44;102904.44;;;16.66;55.09
24390;BME280;12510;56.468;-3.004;2023-02-28T12:38:22;102898.34;;;17.32;59.26
24390;BME280;12510;56.468;-3.004;2023-02-28T12:40:56;102894.00;;;20.46;52.25
24390;BME280;12510;56.468;-3.004;2023-02-28T12:43:27;102883.94;;;20.20;49.12
24390;BME280;12510;56.468;-3.004;2023-02-28T12:46:02;102881.66;;;20.72;49.56
24390;BME280;12510;56.468;-3.004;2023-02-28T12:51:07;102877.16;;;20.35;47.49
24390;BME280;12510;56.468;-3.004;2023-02-28T12:53:53;102884.81;;;20.20;48.56
24390;BME280;12510;56.468;-3.004;2023-02-28T12:59:05;102899.31;;;18.17;59.24
24390;BME280;12510;56.468;-3.004;2023-02-28T13:02:09;102876.66;;;17.90;52.09
24390;BME280;12510;56.468;-3.004;2023-02-28T13:10:08;102880.28;;;16.47;54.10
24390;BME280;12510;56.468;-3.004;2023-02-28T13:12:35;102896.25;;;16.92;59.01
24390;BME280;12510;56.468;-3.004;2023-02-28T13:17:52;102905.06;;;18.13;61.39
24390;BME280;12510;56.468;-3.004;2023-02-28T13:20:23;102892.50;;;17.50;59.37
24390;BME280;12510;56.468;-3.004;2023-02-28T13:22:51;102863.47;;;19.62;50.82
24390;BME280;12510;56.468;-3.004;2023-02-28T13:27:49;102892.22;;;17.09;58.40
24390;BME280;12510;56.468;-3.004;2023-02-28T13:36:29;102883.28;;;17.10;59.99
24390;BME280;12510;56.468;-3.004;2023-02-28T13:39:02;102892.59;;;16.93;61.92
24390;BME280;12510;56.468;-3.004;2023-02-28T13:55:19;102860.41;;;19.47;52.51
24390;BME280;12510;56.468;-3.004;2023-02-28T14:00:43;102858.13;;;19.91;52.97
24390;BME280;12510;56.468;-3.004;2023-02-28T14:03:40;102831.47;;;20.09;50.38
24390;BME280;12510;56.468;-3.004;2023-02-28T14:08:55;102825.47;;;19.87;49.07
24390;BME280;12510;56.468;-3.004;2023-02-28T14:11:46;102835.25;;;20.06;50.91
24390;BME280;12510;56.468;-3.004;2023-02-28T14:17:05;102836.34;;;20.23;49.08
24390;BME280;12510;56.468;-3.004;2023-02-28T14:19:36;102828.66;;;20.48;49.08
24390;BME280;12510;56.468;-3.004;2023-02-28T14:22:29;102824.41;;;21.01;47.67
24390;BME280;12510;56.468;-3.004;2023-02-28T14:25:18;102845.31;;;19.85;52.54
24390;BME280;12510;56.468;-3.004;2023-02-28T14:28:07;102846.06;;;18.06;55.59
24390;BME280;12510;56.468;-3.004;2023-02-28T14:30:55;102829.47;;;19.34;52.40
24390;BME280;12510;56.468;-3.004;2023-02-28T14:36:16;102828.22;;;20.15;48.26
24390;BME280;12510;56.468;-3.004;2023-02-28T14:39:05;102827.47;;;20.51;48.15
24390;BME280;12510;56.468;-3.004;2023-02-28T14:41:35;102815.88;;;20.70;46.55
24390;BME280;12510;56.468;-3.004;2023-02-28T14:44:19;102828.47;;;21.23;51.96
24390;BME280;12510;56.468;-3.004;2023-02-28T14:46:58;102818.25;;;21.45;49.10
24390;BME280;12510;56.468;-3.004;2023-02-28T14:49:44;102814.47;;;21.12;46.63
24390;BME280;12510;56.468;-3.004;2023-02-28T14:52:17;102825.91;;;18.13;54.31
24390;BME280;12510;56.468;-3.004;2023-02-28T14:54:45;102815.78;;;20.24;51.86
24390;BME280;12510;56.468;-3.004;2023-02-28T14:57:39;102818.56;;;20.60;51.63
24390;BME280;12510;56.468;-3.004;2023-02-28T15:00:36;102811.53;;;20.87;49.25
24390;BME280;12510;56.468;-3.004;2023-02-28T15:05:54;102821.63;;;20.09;50.81
24390;BME280;12510;56.468;-3.004;2023-02-28T15:08:21;102822.72;;;20.17;51.45
24390;BME280;12510;56.468;-3.004;2023-02-28T15:13:18;102832.47;;;20.08;54.28